Time;durP1;ratioP1;P1;durP2;ratioP2;P2;SDS_P1;SDS_P2;PMS_P1;PMS_P2;Temp;Humidity;BMP_temperature;BMP_pressure;BME280_temperature;BME280_humidity;BME280_pressure;Samples;Min_cycle;Max_cycle;Signal;HPM_P1;HPM_P2
2022/12/09 00:01:47;;;;;;;86.37;23.27;;;;;1.90;95257.00;;;;8401511;28;20221;-73
2022/12/09 00:05:51;;;;;;;67.10;21.90;;;;;2.00;95255.00;;;;8401353;28;20202;-72
2022/12/09 00:10:28;;;;;;;87.70;24.10;;;;;2.10;95263.00;;;;8401253;28;20509;-72
2022/12/09 00:14:31;;;;;;;75.33;22.60;;;;;2.20;95262.00;;;;8400966;28;20230;-72
2022/12/09 00:18:35;;;;;;;65.13;21.87;;;;;2.30;95256.00;;;;8398465;28;20195;-72
2022/12/09 00:22:40;;;;;;;74.90;23.17;;;;;2.40;95255.00;;;;8400523;28;20191;-73
2022/12/09 00:26:43;;;;;;;96.47;25.00;;;;;2.40;95251.00;;;;8400657;28;20589;-72
2022/12/09 00:31:20;;;;;;;71.90;22.87;;;;;2.40;95247.00;;;;8400267;28;20254;-72
2022/12/09 00:35:23;;;;;;;94.20;24.20;;;;;2.50;95251.00;;;;8399103;28;20277;-72
2022/12/09 00:39:28;;;;;;;85.47;24.37;;;;;2.60;95246.00;;;;8400348;28;20191;-72
2022/12/09 00:43:32;;;;;;;75.67;22.90;;;;;2.60;95246.00;;;;8399205;28;20201;-72
2022/12/09 00:48:06;;;;;;;73.00;22.67;;;;;2.60;95250.00;;;;8399726;28;20191;-72
2022/12/09 00:52:09;;;;;;;86.93;24.37;;;;;2.70;95251.00;;;;8399796;28;20639;-72
2022/12/09 00:56:14;;;;;;;83.40;23.97;;;;;2.70;95245.00;;;;8399691;28;20231;-72
2022/12/09 01:00:48;;;;;;;116.60;27.23;;;;;2.70;95248.00;;;;8398645;28;20255;-72
2022/12/09 01:04:52;;;;;;;80.20;23.83;;;;;2.80;95248.00;;;;8400553;28;20245;-72
2022/12/09 01:09:28;;;;;;;68.53;23.27;;;;;2.70;95251.00;;;;8397282;28;20196;-72
2022/12/09 01:13:33;;;;;;;70.97;23.77;;;;;2.60;95247.00;;;;8399138;28;20247;-72
2022/12/09 01:17:37;;;;;;;73.97;24.50;;;;;2.60;95252.00;;;;8398093;28;20224;-72
2022/12/09 01:21:40;;;;;;;83.13;26.10;;;;;2.60;95243.00;;;;8398374;28;20196;-73
2022/12/09 01:25:43;;;;;;;78.07;25.43;;;;;2.50;95241.00;;;;8398829;28;20240;-72
2022/12/09 01:30:21;;;;;;;85.77;24.77;;;;;2.40;95227.00;;;;8398739;28;20663;-73
2022/12/09 01:34:25;;;;;;;80.63;24.10;;;;;2.40;95229.00;;;;8397662;28;20262;-72
2022/12/09 01:38:28;;;;;;;87.07;24.03;;;;;2.40;95223.00;;;;8398106;28;20587;-72
2022/12/09 01:42:33;;;;;;;71.97;23.60;;;;;2.50;95226.00;;;;8397323;28;20261;-72
2022/12/09 01:46:38;;;;;;;77.00;24.27;;;;;2.50;95214.00;;;;8398768;28;20196;-72
2022/12/09 01:50:46;;;;;;;80.57;25.27;;;;;2.50;95219.00;;;;8398012;28;20604;-72
2022/12/09 01:55:19;;;;;;;85.37;24.37;;;;;2.60;95213.00;;;;8397727;28;20222;-72
2022/12/09 01:59:24;;;;;;;81.10;23.40;;;;;2.60;95217.00;;;;8397926;28;20234;-72
2022/12/09 02:03:29;;;;;;;85.40;24.77;;;;;2.70;95207.00;;;;8398335;28;20302;-72
2022/12/09 02:07:33;;;;;;;78.73;25.03;;;;;2.70;95201.00;;;;8397434;28;20192;-72
2022/12/09 02:11:56;;;;;;;84.13;26.20;;;;;2.70;95190.00;;;;8398644;28;20636;-72
2022/12/09 02:16:05;;;;;;;92.50;26.20;;;;;2.70;95181.00;;;;8397351;28;20249;-72
2022/12/09 02:20:19;;;;;;;79.07;25.33;;;;;2.50;95174.00;;;;8398123;28;20617;-72
2022/12/09 02:24:28;;;;;;;91.43;26.03;;;;;2.50;95161.00;;;;8397655;28;20199;-72
2022/12/09 02:28:54;;;;;;;86.47;25.80;;;;;2.40;95158.00;;;;8397338;28;20549;-72
2022/12/09 02:33:30;;;;;;;59.00;20.20;;;;;2.30;95145.00;;;;8395176;28;20629;-73
2022/12/09 02:37:40;;;;;;;81.40;24.47;;;;;2.20;95157.00;;;;8398455;28;20691;-72
2022/12/09 02:41:46;;;;;;;89.23;25.20;;;;;2.20;95154.00;;;;8397104;28;20634;-72
2022/12/09 02:45:51;;;;;;;95.97;26.73;;;;;2.30;95159.00;;;;8397656;28;20267;-73
2022/12/09 02:50:27;;;;;;;90.33;25.50;;;;;2.30;95166.00;;;;8396989;28;20191;-72
2022/12/09 02:54:34;;;;;;;83.77;25.80;;;;;2.40;95160.00;;;;8402935;28;20195;-72
2022/12/09 02:58:37;;;;;;;83.60;26.10;;;;;2.40;95165.00;;;;8402604;28;20226;-73
2022/12/09 03:02:44;;;;;;;80.73;26.03;;;;;2.40;95145.00;;;;8412342;22;20235;-70
2022/12/09 03:06:52;;;;;;;71.10;24.27;;;;;2.40;95151.00;;;;8378815;28;20196;-70
2022/12/09 03:11:00;;;;;;;80.83;26.03;;;;;2.40;95147.00;;;;8377742;28;20604;-70
2022/12/09 03:15:08;;;;;;;86.03;26.10;;;;;2.40;95140.00;;;;8377949;28;20203;-70
2022/12/09 03:19:20;;;;;;;79.00;26.67;;;;;2.40;95140.00;;;;8376368;28;20690;-70
2022/12/09 03:23:27;;;;;;;85.10;26.10;;;;;2.40;95135.00;;;;8385200;28;20815;-72
2022/12/09 03:27:37;;;;;;;82.13;26.53;;;;;2.30;95124.00;;;;8375657;28;20206;-73
2022/12/09 03:31:40;;;;;;;84.93;26.00;;;;;2.30;95122.00;;;;8385680;28;20199;-73
2022/12/09 03:35:49;;;;;;;75.77;25.93;;;;;2.20;95125.00;;;;8376886;28;20222;-73
2022/12/09 03:39:54;;;;;;;75.43;25.27;;;;;2.20;95140.00;;;;8382731;28;20295;-71
2022/12/09 03:44:07;;;;;;;76.47;27.10;;;;;2.20;95123.00;;;;8390646;28;20293;-71
2022/12/09 03:48:11;;;;;;;83.83;25.70;;;;;2.20;95131.00;;;;8380198;28;20279;-71
2022/12/09 03:52:20;;;;;;;81.50;25.03;;;;;2.20;95132.00;;;;8377007;28;20204;-71
2022/12/09 03:56:27;;;;;;;80.57;25.87;;;;;2.30;95127.00;;;;8387807;28;20250;-71
2022/12/09 04:00:36;;;;;;;76.13;25.37;;;;;2.20;95121.00;;;;8385066;28;20194;-71
2022/12/09 04:04:41;;;;;;;69.97;23.20;;;;;2.20;95120.00;;;;8384664;28;20230;-71
2022/12/09 04:08:44;;;;;;;75.03;25.63;;;;;2.20;95112.00;;;;8381018;28;20269;-71
2022/12/09 04:12:48;;;;;;;79.70;25.37;;;;;2.10;95116.00;;;;8382610;28;20204;-71
2022/12/09 04:16:52;;;;;;;80.33;25.00;;;;;2.10;95122.00;;;;8384890;28;20240;-71
2022/12/09 04:20:56;;;;;;;72.57;23.60;;;;;2.20;95123.00;;;;8386648;28;20204;-71
2022/12/09 04:24:59;;;;;;;70.40;25.27;;;;;2.20;95109.00;;;;8390634;28;20210;-71
2022/12/09 04:29:02;;;;;;;72.40;25.33;;;;;2.10;95101.00;;;;8385374;28;20195;-71
2022/12/09 04:33:07;;;;;;;70.10;23.93;;;;;2.00;95100.00;;;;8379587;28;20204;-71
2022/12/09 04:37:11;;;;;;;73.53;24.67;;;;;2.00;95095.00;;;;8384136;28;20262;-72
2022/12/09 04:41:15;;;;;;;80.27;25.57;;;;;2.00;95112.00;;;;8367596;28;20661;-71
2022/12/09 04:45:18;;;;;;;74.83;24.70;;;;;2.00;95102.00;;;;8382194;28;20203;-71
2022/12/09 04:49:23;;;;;;;77.77;25.23;;;;;1.90;95098.00;;;;8381534;28;20710;-71
2022/12/09 04:53:27;;;;;;;79.33;24.77;;;;;1.90;95080.00;;;;8385943;28;21041;-71
2022/12/09 04:57:30;;;;;;;80.00;25.97;;;;;1.80;95063.00;;;;8384942;28;20317;-72
2022/12/09 05:01:34;;;;;;;81.17;25.47;;;;;1.70;95061.00;;;;8364554;28;20199;-71
2022/12/09 05:05:43;;;;;;;75.13;25.00;;;;;1.70;95061.00;;;;8362567;28;20296;-71
2022/12/09 05:09:47;;;;;;;78.67;24.13;;;;;1.60;95066.00;;;;8379728;28;20260;-71
2022/12/09 05:13:50;;;;;;;77.93;23.80;;;;;1.50;95064.00;;;;8370273;28;20869;-71
2022/12/09 05:17:54;;;;;;;71.83;23.97;;;;;1.40;95062.00;;;;8394909;28;20265;-71
2022/12/09 05:21:59;;;;;;;79.33;24.63;;;;;1.30;95057.00;;;;8380980;28;20267;-71
2022/12/09 05:26:03;;;;;;;81.73;22.77;;;;;1.10;95055.00;;;;8397994;28;20202;-71
2022/12/09 05:30:08;;;;;;;147.40;31.00;;;;;1.10;95045.00;;;;8382062;28;20578;-71
2022/12/09 05:34:12;;;;;;;167.93;25.27;;;;;1.00;95039.00;;;;8378047;28;20201;-71
2022/12/09 05:38:24;;;;;;;149.23;23.47;;;;;0.90;95041.00;;;;8374845;28;20624;-71
2022/12/09 05:42:28;;;;;;;177.43;28.87;;;;;0.90;95033.00;;;;8377362;28;20253;-71
2022/12/09 05:46:31;;;;;;;123.80;27.67;;;;;1.00;95034.00;;;;8376644;28;20296;-71
2022/12/09 05:50:34;;;;;;;113.23;26.27;;;;;1.00;95030.00;;;;8378233;28;20214;-71
2022/12/09 05:54:39;;;;;;;100.93;24.40;;;;;1.00;95028.00;;;;8385553;28;20223;-72
2022/12/09 05:58:44;;;;;;;200.47;28.47;;;;;1.10;95017.00;;;;8380190;28;20253;-71
2022/12/09 06:02:48;;;;;;;103.17;22.00;;;;;1.10;95018.00;;;;8377702;28;20238;-72
2022/12/09 06:06:51;;;;;;;138.03;25.73;;;;;1.00;95012.00;;;;8378348;28;20557;-72
2022/12/09 06:10:56;;;;;;;127.50;28.30;;;;;1.10;95013.00;;;;8382994;28;20198;-71
2022/12/09 06:15:00;;;;;;;86.20;22.30;;;;;1.10;95012.00;;;;8381906;28;20202;-72
2022/12/09 06:19:04;;;;;;;89.30;23.50;;;;;1.10;95015.00;;;;8370702;28;20230;-72
2022/12/09 06:23:08;;;;;;;125.40;28.33;;;;;1.20;95013.00;;;;8381066;28;20624;-71
2022/12/09 06:27:13;;;;;;;90.90;25.07;;;;;1.30;95012.00;;;;8373257;28;20240;-71
2022/12/09 06:31:17;;;;;;;80.73;23.83;;;;;1.30;95004.00;;;;8380584;28;20806;-70
2022/12/09 06:35:21;;;;;;;75.53;23.80;;;;;1.20;95006.00;;;;8381736;28;20271;-71
2022/12/09 06:39:24;;;;;;;73.00;21.80;;;;;1.20;95007.00;;;;8374002;28;20281;-71
2022/12/09 06:43:29;;;;;;;103.20;27.70;;;;;1.20;94998.00;;;;8386249;28;20217;-73
2022/12/09 06:47:33;;;;;;;82.90;23.07;;;;;1.20;95002.00;;;;8378285;28;20198;-71
2022/12/09 06:51:36;;;;;;;84.87;24.57;;;;;1.20;95007.00;;;;8384034;28;20209;-70
2022/12/09 06:55:39;;;;;;;90.30;24.50;;;;;1.20;95003.00;;;;8386799;28;20636;-71
2022/12/09 06:59:44;;;;;;;67.77;21.53;;;;;1.20;94999.00;;;;8391454;28;20217;-71
2022/12/09 07:03:49;;;;;;;76.10;22.40;;;;;1.20;94997.00;;;;8398176;28;20231;-71
2022/12/09 07:07:53;;;;;;;82.07;23.27;;;;;1.20;95002.00;;;;8382591;28;20286;-70
2022/12/09 07:11:57;;;;;;;68.53;21.80;;;;;1.30;95000.00;;;;8390003;28;20209;-70
2022/12/09 07:16:02;;;;;;;64.10;19.67;;;;;1.30;94998.00;;;;8383441;28;20248;-73
2022/12/09 07:20:07;;;;;;;68.00;22.07;;;;;1.40;95004.00;;;;8378324;28;20230;-75
2022/12/09 07:24:11;;;;;;;61.00;20.53;;;;;1.40;95001.00;;;;8384033;28;20224;-72
2022/12/09 07:28:15;;;;;;;65.53;21.50;;;;;1.40;95006.00;;;;8377217;28;20200;-74
2022/12/09 07:32:20;;;;;;;52.70;18.63;;;;;1.40;95007.00;;;;8384636;28;20211;-75
2022/12/09 07:36:25;;;;;;;67.47;23.37;;;;;1.40;95013.00;;;;8387247;28;20278;-72
2022/12/09 07:40:28;;;;;;;56.40;20.53;;;;;1.40;95006.00;;;;8382232;28;20214;-74
2022/12/09 07:44:31;;;;;;;70.53;23.67;;;;;1.40;95000.00;;;;8378775;28;20203;-72
2022/12/09 07:48:36;;;;;;;70.83;25.50;;;;;1.40;94998.00;;;;8374195;28;20202;-75
2022/12/09 07:52:40;;;;;;;60.13;20.20;;;;;1.40;95010.00;;;;8379168;28;20303;-74
2022/12/09 07:56:44;;;;;;;54.37;19.33;;;;;1.40;94986.00;;;;8374317;28;20211;-74
2022/12/09 08:00:47;;;;;;;55.97;20.67;;;;;1.40;94990.00;;;;8374844;28;20196;-75
2022/12/09 08:04:52;;;;;;;55.00;18.90;;;;;1.50;94982.00;;;;8390394;28;20323;-73
2022/12/09 08:08:57;;;;;;;53.07;19.23;;;;;1.60;94976.00;;;;8378179;28;20202;-71
2022/12/09 08:13:01;;;;;;;54.93;20.13;;;;;1.60;94971.00;;;;8390157;28;20226;-73
2022/12/09 08:17:05;;;;;;;53.77;19.53;;;;;1.60;94971.00;;;;8385551;28;20230;-74
2022/12/09 08:21:11;;;;;;;49.93;19.40;;;;;1.60;94966.00;;;;8392545;28;20238;-75
2022/12/09 08:25:15;;;;;;;52.63;18.80;;;;;1.70;94963.00;;;;8390901;28;20194;-71
2022/12/09 08:29:19;;;;;;;38.87;16.33;;;;;1.80;94953.00;;;;8378231;28;20246;-73
2022/12/09 08:33:22;;;;;;;51.60;19.10;;;;;1.80;94950.00;;;;8380646;28;20200;-75
2022/12/09 08:37:27;;;;;;;43.70;15.93;;;;;1.90;94954.00;;;;8386068;28;20830;-74
2022/12/09 08:41:35;;;;;;;52.50;20.50;;;;;1.90;94955.00;;;;8385679;28;20666;-73
2022/12/09 08:45:41;;;;;;;41.30;17.47;;;;;2.00;94949.00;;;;8375420;28;20239;-73
2022/12/09 08:49:45;;;;;;;37.67;16.10;;;;;2.00;94945.00;;;;8369418;28;20209;-75
2022/12/09 08:53:50;;;;;;;58.43;20.70;;;;;2.10;94949.00;;;;8384318;28;20214;-78
2022/12/09 08:57:53;;;;;;;37.83;15.67;;;;;2.20;94938.00;;;;8373571;28;20947;-80
2022/12/09 09:01:56;;;;;;;52.90;19.93;;;;;2.40;94933.00;;;;8372171;28;20235;-80
2022/12/09 09:06:04;;;;;;;54.37;18.70;;;;;2.40;94925.00;;;;8380221;28;20207;-77
2022/12/09 09:10:14;;;;;;;37.33;16.03;;;;;2.40;94930.00;;;;8398066;28;20183;-85
2022/12/09 09:14:49;;;;;;;27.60;12.77;;;;;2.50;94934.00;;;;8399281;28;20222;-80
2022/12/09 09:19:26;;;;;;;49.10;19.50;;;;;2.50;94924.00;;;;8398960;28;20223;-81
2022/12/09 09:23:29;;;;;;;43.60;17.60;;;;;2.60;94927.00;;;;8398113;28;20198;-83
2022/12/09 09:27:35;;;;;;;42.17;17.93;;;;;2.60;94924.00;;;;8398060;28;20217;-80
2022/12/09 09:32:09;;;;;;;46.77;18.83;;;;;2.60;94917.00;;;;8395607;28;20240;-79
2022/12/09 09:36:44;;;;;;;40.43;16.40;;;;;2.70;94922.00;;;;8397544;28;20261;-76
2022/12/09 09:41:21;;;;;;;36.33;15.97;;;;;2.80;94919.00;;;;8397994;28;20258;-78
2022/12/09 09:45:58;;;;;;;46.23;19.60;;;;;2.70;94898.00;;;;8397366;28;20228;-80
2022/12/09 09:50:35;;;;;;;50.30;19.20;;;;;2.60;94898.00;;;;8397497;28;20255;-81
2022/12/09 09:55:09;;;;;;;38.50;16.57;;;;;2.60;94906.00;;;;8398040;28;20252;-82
2022/12/09 09:59:50;;;;;;;36.07;16.17;;;;;2.60;94888.00;;;;8396344;28;20256;-82
2022/12/09 10:09:17;;;;;;;36.63;15.10;;;;;2.70;94875.00;;;;8398147;28;20244;-79
2022/12/09 10:13:48;;;;;;;38.30;16.90;;;;;2.60;94872.00;;;;8395264;28;20203;-79
2022/12/09 10:18:21;;;;;;;35.13;14.80;;;;;2.70;94872.00;;;;8397817;28;20269;-78
2022/12/09 10:22:58;;;;;;;41.67;16.90;;;;;2.70;94867.00;;;;8397265;28;20195;-77
2022/12/09 10:27:36;;;;;;;35.60;15.73;;;;;2.60;94878.00;;;;8397374;28;20195;-77
2022/12/09 10:32:07;;;;;;;35.37;15.67;;;;;2.70;94879.00;;;;8396513;28;20231;-77
2022/12/09 10:36:23;;;;;;;31.03;14.17;;;;;2.70;94873.00;;;;8397406;28;20203;-78
2022/12/09 10:40:56;;;;;;;34.13;15.20;;;;;2.70;94864.00;;;;8394214;28;20540;-76
2022/12/09 10:45:26;;;;;;;34.63;15.80;;;;;2.70;94872.00;;;;8396935;28;20521;-77
2022/12/09 10:50:01;;;;;;;29.63;14.43;;;;;2.70;94873.00;;;;8396233;28;20191;-79
2022/12/09 10:54:39;;;;;;;33.60;15.43;;;;;2.70;94861.00;;;;8397034;28;20199;-75
2022/12/09 10:59:18;;;;;;;32.87;15.73;;;;;2.70;94860.00;;;;8395819;28;20223;-76
2022/12/09 11:03:53;;;;;;;27.57;13.53;;;;;2.70;94850.00;;;;8396403;28;20224;-73
2022/12/09 11:08:32;;;;;;;31.60;14.37;;;;;2.60;94847.00;;;;8396262;28;20281;-73
2022/12/09 11:13:08;;;;;;;37.53;16.57;;;;;2.70;94839.00;;;;8398595;28;20230;-73
2022/12/09 11:17:42;;;;;;;27.27;14.20;;;;;2.70;94830.00;;;;8403107;28;20198;-73
2022/12/09 11:22:22;;;;;;;29.77;13.23;;;;;2.70;94822.00;;;;8402021;28;20195;-73
2022/12/09 11:26:34;;;;;;;33.43;14.27;;;;;2.70;94822.00;;;;8402913;28;20200;-73
2022/12/09 11:30:40;;;;;;;29.17;15.07;;;;;2.70;94817.00;;;;8402519;28;20207;-73
2022/12/09 11:35:40;;;;;;;34.50;15.50;;;;;2.70;94796.00;;;;8402033;28;20199;-73
2022/12/09 11:39:49;;;;;;;33.17;16.40;;;;;2.80;94789.00;;;;8402720;28;20278;-73
2022/12/09 11:43:56;;;;;;;31.67;14.53;;;;;2.80;94791.00;;;;8398975;28;20290;-72
2022/12/09 11:48:28;;;;;;;32.20;15.23;;;;;2.80;94783.00;;;;8399789;28;20256;-72
2022/12/09 11:53:15;;;;;;;27.27;12.70;;;;;3.00;94778.00;;;;8399515;28;20570;-72
2022/12/09 11:57:45;;;;;;;26.87;13.27;;;;;3.00;94787.00;;;;8402419;28;20187;-71
2022/12/09 12:01:54;;;;;;;22.87;11.03;;;;;3.00;94788.00;;;;8398970;28;20231;-71
2022/12/09 12:06:00;;;;;;;37.53;17.17;;;;;3.10;94788.00;;;;8401052;28;20204;-71
2022/12/09 12:10:15;;;;;;;28.63;14.47;;;;;3.00;94782.00;;;;8401131;28;20529;-71
2022/12/09 12:14:22;;;;;;;22.00;11.00;;;;;3.10;94786.00;;;;8400953;28;20629;-70
2022/12/09 12:18:32;;;;;;;26.23;12.40;;;;;3.00;94784.00;;;;8401283;28;20234;-70
2022/12/09 12:23:06;;;;;;;23.30;11.97;;;;;3.00;94783.00;;;;8400050;28;20196;-70
2022/12/09 12:27:23;;;;;;;20.63;10.87;;;;;3.00;94775.00;;;;8396319;28;20257;-70
2022/12/09 12:31:40;;;;;;;27.83;12.63;;;;;3.00;94765.00;;;;8399782;28;20199;-71
2022/12/09 12:36:11;;;;;;;26.70;12.90;;;;;3.00;94746.00;;;;8400065;28;20203;-71
2022/12/09 12:40:39;;;;;;;24.67;11.63;;;;;3.10;94748.00;;;;8399761;28;20257;-72
2022/12/09 12:50:02;;;;;;;24.30;12.13;;;;;3.20;94730.00;;;;8400025;28;20195;-71
2022/12/09 12:54:15;;;;;;;21.00;11.33;;;;;3.20;94730.00;;;;8399229;28;20191;-70
2022/12/09 12:58:32;;;;;;;25.47;12.27;;;;;3.20;94750.00;;;;8399622;28;20250;-71
2022/12/09 13:02:44;;;;;;;18.83;9.80;;;;;3.20;94755.00;;;;8399081;28;20222;-71
2022/12/09 13:11:58;;;;;;;22.30;11.80;;;;;3.10;94763.00;;;;8399093;28;20199;-72
2022/12/09 13:16:26;;;;;;;20.87;11.60;;;;;3.10;94759.00;;;;8397567;28;20198;-72
2022/12/09 13:20:34;;;;;;;21.60;10.73;;;;;3.10;94747.00;;;;8398696;28;20284;-71
2022/12/09 13:24:43;;;;;;;28.17;12.77;;;;;3.10;94733.00;;;;8399449;28;20191;-71
2022/12/09 13:28:54;;;;;;;21.40;11.03;;;;;3.10;94722.00;;;;8399010;28;20199;-71
2022/12/09 13:33:35;;;;;;;25.00;10.90;;;;;3.10;94726.00;;;;8398850;28;20203;-71
2022/12/09 13:37:56;;;;;;;20.47;10.60;;;;;3.20;94728.00;;;;8384461;28;20632;-71
2022/12/09 13:46:23;;;;;;;20.80;11.00;;;;;3.10;94726.00;;;;8399550;28;20195;-71
2022/12/09 13:50:31;;;;;;;21.73;11.77;;;;;3.10;94733.00;;;;8397949;28;20199;-71
2022/12/09 13:54:45;;;;;;;21.80;10.03;;;;;3.10;94741.00;;;;8391870;28;20191;-71
2022/12/09 13:59:10;;;;;;;22.80;10.73;;;;;3.10;94733.00;;;;8398168;28;20198;-71
2022/12/09 14:03:27;;;;;;;19.70;9.40;;;;;3.10;94743.00;;;;8398531;28;20219;-71
2022/12/09 14:07:35;;;;;;;24.50;10.97;;;;;3.10;94737.00;;;;8399607;28;20216;-71
2022/12/09 14:11:46;;;;;;;17.97;9.27;;;;;3.20;94731.00;;;;8398807;28;20202;-71
2022/12/09 14:16:13;;;;;;;21.60;11.03;;;;;3.10;94733.00;;;;8398917;28;20593;-71
2022/12/09 14:20:30;;;;;;;24.67;11.27;;;;;3.10;94743.00;;;;8398155;28;20244;-71
2022/12/09 14:24:35;;;;;;;22.97;11.53;;;;;3.10;94753.00;;;;8398140;28;20196;-71
2022/12/09 14:28:52;;;;;;;22.57;11.20;;;;;3.10;94742.00;;;;8397303;28;20191;-71
2022/12/09 14:32:57;;;;;;;26.93;11.80;;;;;3.20;94739.00;;;;8397855;28;20249;-71
2022/12/09 14:37:37;;;;;;;30.73;12.57;;;;;3.10;94733.00;;;;8398036;28;20647;-71
2022/12/09 14:41:49;;;;;;;20.87;11.03;;;;;3.10;94736.00;;;;8277440;28;20230;-71
2022/12/09 14:45:56;;;;;;;23.00;9.63;;;;;3.20;94742.00;;;;8397574;28;20202;-71
2022/12/09 14:50:07;;;;;;;19.77;10.07;;;;;3.20;94753.00;;;;8403980;28;20282;-71
2022/12/09 14:54:18;;;;;;;21.63;10.57;;;;;3.30;94760.00;;;;8403888;28;20204;-71
2022/12/09 14:58:23;;;;;;;16.63;9.23;;;;;3.30;94763.00;;;;8405410;28;20200;-71
2022/12/09 15:02:57;;;;;;;23.73;10.73;;;;;3.20;94756.00;;;;8403352;28;20318;-72
2022/12/09 15:07:21;;;;;;;22.80;11.93;;;;;3.20;94757.00;;;;8402561;28;20195;-73
2022/12/09 15:11:30;;;;;;;29.00;12.23;;;;;3.20;94745.00;;;;8403275;28;20196;-72
2022/12/09 15:15:35;;;;;;;25.70;11.13;;;;;3.10;94745.00;;;;8402854;28;20195;-72
2022/12/09 15:20:19;;;;;;;24.70;11.20;;;;;3.00;94752.00;;;;8403737;28;20603;-72
2022/12/09 15:24:44;;;;;;;21.10;10.67;;;;;3.00;94748.00;;;;8402296;28;20195;-71
2022/12/09 15:28:56;;;;;;;17.63;8.93;;;;;2.90;94757.00;;;;8402597;28;20191;-71
2022/12/09 15:32:59;;;;;;;20.10;8.77;;;;;2.80;94751.00;;;;8402840;28;20186;-71
2022/12/09 15:37:08;;;;;;;21.87;11.53;;;;;2.80;94757.00;;;;8402652;28;20245;-71
2022/12/09 15:46:05;;;;;;;18.73;9.57;;;;;2.70;94779.00;;;;8401664;28;20197;-71
2022/12/09 15:50:17;;;;;;;17.90;8.43;;;;;2.70;94781.00;;;;8401782;28;20210;-71
2022/12/09 15:54:25;;;;;;;17.63;9.07;;;;;2.70;94779.00;;;;8401885;28;20199;-71
2022/12/09 15:58:33;;;;;;;17.17;10.10;;;;;2.70;94767.00;;;;8400590;28;20199;-71
2022/12/09 16:03:04;;;;;;;21.70;10.57;;;;;2.50;94760.00;;;;8402220;28;20793;-71
2022/12/09 16:07:11;;;;;;;19.50;10.20;;;;;2.50;94768.00;;;;8402856;28;20234;-71
2022/12/09 16:11:34;;;;;;;23.87;11.73;;;;;2.40;94767.00;;;;8401960;28;20187;-70
2022/12/09 16:15:47;;;;;;;20.23;10.50;;;;;2.40;94765.00;;;;8401151;28;20195;-71
2022/12/09 16:19:53;;;;;;;18.03;9.97;;;;;2.30;94770.00;;;;8401739;28;20269;-71
2022/12/09 16:24:10;;;;;;;20.53;10.20;;;;;2.30;94770.00;;;;8401056;28;20198;-72
2022/12/09 16:28:20;;;;;;;20.60;10.10;;;;;2.30;94770.00;;;;8401761;28;20221;-71
2022/12/09 16:32:50;;;;;;;19.27;10.17;;;;;2.30;94772.00;;;;8401358;28;20184;-72
2022/12/09 16:36:55;;;;;;;18.60;9.57;;;;;2.30;94775.00;;;;8401410;28;20533;-72
2022/12/09 16:41:10;;;;;;;25.03;10.80;;;;;2.30;94779.00;;;;8400445;28;20238;-72
2022/12/09 16:45:35;;;;;;;25.23;10.90;;;;;2.40;94783.00;;;;8400735;28;20200;-73
2022/12/09 16:49:40;;;;;;;23.10;11.03;;;;;2.40;94781.00;;;;8400826;28;20269;-72
2022/12/09 16:53:44;;;;;;;23.07;11.43;;;;;2.40;94779.00;;;;8400656;28;20198;-72
2022/12/09 16:57:50;;;;;;;23.53;11.70;;;;;2.40;94791.00;;;;8400281;28;20286;-71
2022/12/09 17:01:54;;;;;;;23.73;11.13;;;;;2.40;94777.00;;;;8399866;28;20231;-71
2022/12/09 17:05:57;;;;;;;25.03;11.87;;;;;2.40;94779.00;;;;8400186;28;20615;-71
2022/12/09 17:10:00;;;;;;;26.93;11.53;;;;;2.40;94785.00;;;;8398588;28;20229;-71
2022/12/09 17:14:38;;;;;;;23.93;11.50;;;;;2.40;94787.00;;;;8399383;28;20195;-71
2022/12/09 17:18:41;;;;;;;24.63;12.17;;;;;2.40;94791.00;;;;8399596;28;20199;-71
2022/12/09 17:22:44;;;;;;;27.60;12.90;;;;;2.40;94796.00;;;;8398189;28;20219;-71
2022/12/09 17:26:47;;;;;;;25.10;12.33;;;;;2.40;94805.00;;;;8399943;28;20211;-71
2022/12/09 17:30:52;;;;;;;25.83;11.60;;;;;2.50;94803.00;;;;8398369;28;20200;-71
2022/12/09 17:34:55;;;;;;;24.77;11.77;;;;;2.40;94791.00;;;;8398536;28;20199;-71
2022/12/09 17:39:01;;;;;;;28.30;13.23;;;;;2.40;94799.00;;;;8398724;28;20196;-71
2022/12/09 17:43:04;;;;;;;28.03;12.70;;;;;2.40;94808.00;;;;8398959;28;20286;-71
2022/12/09 17:47:08;;;;;;;29.23;13.07;;;;;2.40;94811.00;;;;8398457;28;20189;-71
2022/12/09 17:51:13;;;;;;;30.73;14.13;;;;;2.40;94820.00;;;;8400065;28;20195;-71
2022/12/09 17:55:16;;;;;;;25.97;12.40;;;;;2.50;94827.00;;;;8398485;28;20272;-71
2022/12/09 17:59:19;;;;;;;31.73;13.77;;;;;2.40;94828.00;;;;8398751;28;20195;-70
2022/12/09 18:03:24;;;;;;;25.17;12.47;;;;;2.50;94824.00;;;;8399218;28;20624;-70
2022/12/09 18:07:47;;;;;;;25.50;12.20;;;;;2.50;94830.00;;;;8397860;28;20203;-70
2022/12/09 18:11:51;;;;;;;27.90;12.10;;;;;2.50;94828.00;;;;8399198;28;20624;-70
2022/12/09 18:15:54;;;;;;;32.40;13.20;;;;;2.50;94841.00;;;;8398619;28;20214;-70
2022/12/09 18:19:59;;;;;;;28.57;13.63;;;;;2.50;94829.00;;;;8398471;28;20205;-70
2022/12/09 18:24:02;;;;;;;30.40;13.10;;;;;2.50;94829.00;;;;8397378;28;20194;-70
2022/12/09 18:28:05;;;;;;;35.73;14.47;;;;;2.50;94841.00;;;;8398261;28;20674;-70
2022/12/09 18:32:39;;;;;;;30.27;14.37;;;;;2.50;94830.00;;;;8398292;28;20210;-70
2022/12/09 18:36:43;;;;;;;34.83;15.90;;;;;2.50;94834.00;;;;8397578;28;20240;-70
2022/12/09 18:41:00;;;;;;;26.67;13.80;;;;;2.50;94842.00;;;;8396913;28;20219;-70
2022/12/09 18:45:04;;;;;;;27.23;13.30;;;;;2.50;94846.00;;;;8397543;28;20248;-70
2022/12/09 18:49:10;;;;;;;26.67;12.17;;;;;2.50;94858.00;;;;8397007;28;20198;-70
2022/12/09 18:53:15;;;;;;;27.57;11.97;;;;;2.60;94858.00;;;;8398450;28;20537;-70
2022/12/09 18:57:18;;;;;;;24.87;12.30;;;;;2.50;94852.00;;;;8397685;28;20194;-69
2022/12/09 19:01:24;;;;;;;29.90;13.43;;;;;2.60;94840.00;;;;8397064;28;20228;-69
2022/12/09 19:05:27;;;;;;;28.03;13.47;;;;;2.60;94848.00;;;;8397673;28;20709;-69
2022/12/09 19:09:33;;;;;;;29.73;13.77;;;;;2.60;94852.00;;;;8396581;28;20195;-69
2022/12/09 19:14:07;;;;;;;40.60;15.13;;;;;2.60;94861.00;;;;8397093;28;20186;-70
2022/12/09 19:18:11;;;;;;;44.63;16.30;;;;;2.60;94873.00;;;;8396926;28;20274;-69
2022/12/09 19:22:14;;;;;;;30.57;14.37;;;;;2.60;94877.00;;;;8397803;28;20280;-70
2022/12/09 19:26:21;;;;;;;28.37;13.70;;;;;2.60;94886.00;;;;8396956;28;20188;-70
2022/12/09 19:30:24;;;;;;;33.07;14.27;;;;;2.60;94890.00;;;;8397503;28;20211;-70
2022/12/09 19:34:29;;;;;;;28.70;13.67;;;;;2.70;94886.00;;;;8400604;28;20195;-70
2022/12/09 19:38:32;;;;;;;31.43;13.13;;;;;2.70;94885.00;;;;8403231;28;20545;-70
2022/12/09 19:42:38;;;;;;;28.87;13.10;;;;;2.80;94888.00;;;;8401942;28;20226;-70
2022/12/09 19:46:42;;;;;;;27.47;13.93;;;;;2.80;94890.00;;;;8403058;28;20196;-70
2022/12/09 19:50:46;;;;;;;29.07;13.20;;;;;2.80;94892.00;;;;8402271;28;20235;-70
2022/12/09 19:54:49;;;;;;;31.50;13.87;;;;;2.90;94886.00;;;;8403030;28;20568;-70
2022/12/09 19:58:54;;;;;;;25.97;12.37;;;;;2.90;94895.00;;;;8401893;28;20195;-70
2022/12/09 20:02:58;;;;;;;30.07;13.97;;;;;2.90;94893.00;;;;8401792;28;20281;-70
2022/12/09 20:07:02;;;;;;;31.67;13.53;;;;;2.80;94904.00;;;;8402523;28;20290;-70
2022/12/09 20:11:12;;;;;;;27.17;13.00;;;;;2.70;94908.00;;;;8402279;28;20192;-70
2022/12/09 20:15:17;;;;;;;27.80;13.93;;;;;2.70;94922.00;;;;8402608;28;20187;-70
2022/12/09 20:19:20;;;;;;;30.70;14.40;;;;;2.60;94903.00;;;;8402856;28;20223;-70
2022/12/09 20:23:23;;;;;;;30.20;14.43;;;;;2.60;94900.00;;;;8401659;28;20246;-71
2022/12/09 20:27:26;;;;;;;30.37;13.60;;;;;2.60;94891.00;;;;8400598;28;20244;-71
2022/12/09 20:31:32;;;;;;;31.43;13.90;;;;;2.50;94893.00;;;;8401370;28;20198;-71
2022/12/09 20:35:36;;;;;;;32.97;14.53;;;;;2.50;94893.00;;;;8400305;28;20209;-71
2022/12/09 20:40:13;;;;;;;32.27;12.77;;;;;2.50;94892.00;;;;8400524;28;20198;-71
2022/12/09 20:44:18;;;;;;;28.23;13.13;;;;;2.50;94908.00;;;;8401138;28;20651;-71
2022/12/09 20:48:23;;;;;;;30.60;14.63;;;;;2.60;94903.00;;;;8400803;28;20624;-71
2022/12/09 20:52:26;;;;;;;32.87;14.47;;;;;2.60;94903.00;;;;8398654;28;20198;-71
2022/12/09 20:56:30;;;;;;;31.10;14.40;;;;;2.50;94893.00;;;;8400029;28;20206;-71
2022/12/09 21:00:33;;;;;;;31.27;13.90;;;;;2.50;94894.00;;;;8400584;28;20271;-70
2022/12/09 21:04:37;;;;;;;35.63;15.37;;;;;2.50;94903.00;;;;8399002;28;20285;-70
2022/12/09 21:09:17;;;;;;;29.57;14.07;;;;;2.40;94907.00;;;;8400117;28;20199;-69